Terminal Aerodrome Forecast
Issued by NWS Pittsburgh, PA

Current Version | Previous Version | Text Only | Print | Product List | Glossary Off
Versions: 1 2 3 4 5 6 7 8 9 10 11 12 13 14 15 16 17 18 19 20 21 22 23 24 25 26 27 28

238
FTUS41 KPBZ 211139
TAFPIT
TAF
KPIT 211139Z 2112/2218 18007KT P6SM BKN080 WS020/22045KT
     FM211400 22012G22KT P6SM VCSH BKN035
     FM211700 30012G22KT 5SM -SHRA OVC015
     FM212100 33010KT 5SM -SHRA OVC015
     FM220000 35008KT P6SM -SHRA OVC035
     FM220700 05010KT 3SM -RA OVC010=

USA.gov is the U.S. government's official web portal to all federal, state and local government web resources and services.